This is the latest recevied weather packets stored in our database for station/object VK2OB. If no packets are shown the sender has not sent any weather packets the latest 10 day(s).
| Time | Temp. | Humidity | Pressure | Rain* | Wind** | Luminosity | Snow |
|---|---|---|---|---|---|---|---|
| 1777425208 | 25° C | 58% | 1028.7 hPa | 0 mm | - | - | - |
| 1777424909 | 24.44° C | 59% | 1028.7 hPa | 0 mm | - | - | - |
| 1777424610 | 25° C | 58% | 1028.7 hPa | 0 mm | - | - | - |
| 1777424311 | 25° C | 55% | 1028.8 hPa | 0 mm | - | - | - |
| 1777424012 | 25.56° C | 53% | 1028.8 hPa | 0 mm | - | - | - |
| 1777423713 | 26.67° C | 49% | 1028.7 hPa | 0 mm | - | - | - |
| 1777423414 | 27.78° C | 50% | 1028.7 hPa | 0 mm | - | - | - |
| 1777423114 | 27.22° C | 50% | 1028.7 hPa | 0 mm | - | - | - |
| 1777422816 | 27.78° C | 51% | 1028.7 hPa | 0 mm | - | - | - |
| 1777422517 | 28.33° C | 52% | 1028.7 hPa | 0 mm | - | - | - |
| 1777422218 | 28.33° C | 52% | 1028.8 hPa | 0 mm | - | - | - |
| 1777421919 | 28.33° C | 52% | 1028.7 hPa | 0 mm | - | - | - |
| 1777421620 | 27.78° C | 54% | 1028.7 hPa | 0 mm | - | - | - |
| 1777421321 | 27.22° C | 54% | 1028.7 hPa | 0 mm | - | - | - |
| 1777421022 | 26.67° C | 57% | 1028.7 hPa | 0 mm | - | - | - |
| 1777420723 | 26.11° C | 58% | 1028.7 hPa | 0 mm | - | - | - |
| 1777420424 | 26.11° C | 60% | 1028.7 hPa | 0 mm | - | - | - |
| 1777420125 | 25.56° C | 61% | 1028.7 hPa | 0 mm | - | - | - |
| 1777419826 | 25° C | 65% | 1028.7 hPa | 0 mm | - | - | - |
| 1777419527 | 24.44° C | 73% | 1028.7 hPa | 0 mm | - | - | - |
| 1777419228 | 22.78° C | 77% | 1028.7 hPa | 0 mm | - | - | - |
| 1777418929 | 20.56° C | 82% | 1028.6 hPa | 0 mm | - | - | - |
| 1777418630 | 20° C | 83% | 1028.6 hPa | 0 mm | - | - | - |
| 1777418331 | 20° C | 85% | 1028.6 hPa | 0 mm | - | - | - |
| 1777418032 | 20° C | 89% | 1028.6 hPa | 0 mm | - | - | - |
* Rain latest hour (hover to see other rain measurements)
** Current wind speed in m/s (hover to see current wind gust speed)